Date,TemperatureHighF,TemperatureAvgF,TemperatureLowF,DewpointHighF,DewpointAvgF,DewpointLowF,HumidityHigh,HumidityAvg,HumidityLow,PressureMaxIn,PressureMinIn,WindSpeedMaxMPH,WindSpeedAvgMPH,GustSpeedMaxMPH,PrecipitationSumIn
2013-3-1,46.8,44.4,41.5,45.0,42.5,39.7,94,93,92,30.22,30.16,12,0,13,0.56
2013-3-2,45.5,43.1,36.9,43.7,41.0,34.7,94,92,88,30.22,30.04,10,2,11,0.35
2013-3-3,46.2,39.9,34.7,37.6,35.2,32.0,93,84,68,30.31,30.17,13,2,15,0.01
2013-3-4,45.9,38.6,33.1,38.7,34.1,30.9,93,84,64,30.32,29.99,10,-2,10,0.00
2013-3-5,44.4,39.2,34.7,39.0,35.5,32.0,93,87,70,29.99,29.80,8,-3,11,0.15
2013-3-6,45.7,41.9,38.8,40.5,38.5,37.0,94,88,73,29.85,29.64,6,1,7,0.01
2013-3-7,46.2,42.9,39.7,41.4,39.5,37.6,98,88,79,30.13,29.85,14,2,18,0.00
2013-3-8,47.8,41.5,37.0,41.4,38.0,34.5,93,87,73,30.25,30.11,11,-2,12,0.00
2013-3-9,45.7,40.5,34.3,41.7,37.7,32.2,93,90,81,30.48,30.24,14,-2,17,0.00
2013-3-10,46.8,43.4,40.5,42.3,40.3,38.1,93,89,80,30.48,30.40,8,1,9,0.01
2013-3-11,46.8,42.6,39.0,42.4,39.4,36.9,93,88,80,30.43,30.11,13,-2,17,0.07
2013-3-12,52.9,44.3,40.3,48.0,41.6,38.1,95,90,81,30.11,29.90,26,2,33,0.57
2013-3-13,54.7,51.8,47.1,48.9,47.3,44.8,93,85,77,30.10,29.96,25,7,28,0.19
2013-3-14,53.4,48.8,46.6,48.4,45.4,44.1,93,88,74,30.09,29.96,23,5,26,0.12
2013-3-15,50.5,46.8,43.3,48.2,44.3,41.2,94,91,87,30.18,30.09,9,3,10,0.05
2013-3-16,48.9,43.7,38.1,44.4,40.6,35.1,94,89,70,30.09,29.83,13,2,14,0.11
2013-3-17,47.5,42.8,38.5,36.7,33.3,27.3,85,70,46,30.13,29.92,10,1,12,0.01
2013-3-18,47.7,42.0,36.5,36.5,33.1,26.8,90,72,45,30.24,30.01,17,2,18,0.01
2013-3-19,46.8,40.7,35.2,39.7,34.9,31.3,91,80,69,30.24,29.50,18,5,19,0.10
2013-3-20,52.2,46.7,39.9,45.9,40.4,32.5,85,79,64,29.92,29.21,30,10,35,0.16
2013-3-21,44.8,39.3,32.7,35.6,32.3,25.3,92,77,50,30.20,29.92,14,-1,14,0.00
2013-3-22,45.1,38.6,31.5,33.4,31.3,28.6,91,76,55,30.37,30.19,10,1,10,0.00
2013-3-23,46.0,40.3,35.1,35.1,32.7,27.3,89,75,52,30.39,30.31,23,0,23,0.00
2013-3-24,46.6,42.3,39.0,37.4,35.1,33.3,83,76,67,30.32,30.15,11,2,11,0.00
2013-3-25,52.0,45.2,40.6,38.7,36.4,28.8,86,72,42,30.15,29.98,12,-2,12,0.00
2013-3-26,51.6,46.3,41.0,43.5,39.5,36.5,89,78,62,30.04,29.99,9,2,10,0.00
2013-3-27,53.1,46.6,38.7,46.8,41.6,36.3,92,83,69,30.01,29.95,10,2,11,0.00
2013-3-28,54.3,49.0,44.8,46.2,44.0,41.9,90,83,67,30.15,30.01,11,2,11,0.00
2013-3-29,53.1,47.0,40.8,47.7,43.6,38.7,93,88,78,30.28,30.15,10,2,11,0.00
2013-3-30,57.4,48.1,40.5,47.7,43.6,38.7,94,85,62,30.30,30.12,9,2,11,0.00
2013-3-31,57.6,49.3,40.8,49.5,43.9,38.7,93,82,66,30.12,29.93,10,-2,11,0.01